• Join FlightAware (Why Join?)
  • Login
  • US Flag 
08:07AM EST


 

Airport Tracker/Info


-or-


 

Live Flight TrackerFlight Track Log ✈ N408FP ✈ 14-Mar-2014 ✈ KAPF - KGNV

Flight Track Log - Related Links

Times and Time Zones

All times are in EDT time to prevent confusion due to time zone crossing. See the N408FP flight status page for this flight to view local times or setup timezone preferences in your user account.

Time Position Orientation Groundspeed Altitude Reporting Facility
EDT Latitude Longitude Course Direction KTS MPH feet Rate Location/Type
05:57PM 26.3277 -81.7833 North  Level FlightAware Approximate
05:58PM 26.3575 -81.7833 360° North  Level FlightAware Approximate
05:59PM 26.3871 -81.7856 354° North  Level FlightAware Approximate
06:00PM 26.4167 -81.7890 354° North  Level FlightAware Approximate
06:01PM 26.4463 -81.7923 354° North  Level FlightAware Approximate
06:02PM 26.4760 -81.7957 354° North  Level FlightAware Approximate
06:03PM 26.5056 -81.7990 354° North  Level FlightAware Approximate
06:04PM 26.5352 -81.8024 354° North  Level FlightAware Approximate
06:05PM 26.5648 -81.8057 354° North  Level FlightAware Approximate
06:06PM 26.5944 -81.8091 354° North  Level FlightAware Approximate
06:07PM 26.6240 -81.8124 354° North  Level FlightAware Approximate
06:08PM 26.6536 -81.8158 354° North  Level FlightAware Approximate
06:09PM 26.6832 -81.8192 354° North  Level FlightAware Approximate
06:10PM 26.7128 -81.8225 354° North  Level FlightAware Approximate
06:11PM 26.7424 -81.8259 354° North  Level FlightAware Approximate
06:12PM 26.7720 -81.8293 354° North  Level FlightAware Approximate
06:12PM 26.7017 -82.0044 354° North 129 148 5,900  Level Miami Center
06:13PM 26.8016 -81.8326 354° North  Level FlightAware Approximate
06:13PM 26.7369 -82.0106 351° North 129 148 6,000  Level Miami Center
06:14PM 26.8312 -81.8360 354° North  Level FlightAware Approximate
06:14PM 26.7681 -82.0142 354° North 129 148 6,000  Level Miami Center
06:15PM 26.8608 -81.8394 354° North  Level FlightAware Approximate
06:15PM 26.8033 -82.0206 351° North 124 143 6,000  Level Miami Center
06:16PM 26.8904 -81.8427 354° North  Level FlightAware Approximate
06:16PM 26.8367 -82.0242 354° North 129 148 6,000  Level Miami Center
06:17PM 26.8781 -82.0331 349° North 134 154 6,000  Level Miami Center
06:18PM 26.9156 -82.0394 351° North 134 154 6,000  Level Miami Center
06:19PM 26.9611 -82.0461 353° North 129 148 6,000  Level Miami Center
06:20PM 26.9944 -82.0522 351° North 129 148 6,000  Level Miami Center
06:21PM 27.0275 -82.0561 354° North 140 161 6,000 -60 Level Miami Center
06:22PM 27.0631 -82.0553 North 140 161 5,900  Descending Miami Center
06:23PM 27.0986 -82.0544 North 134 154 6,000  Climbing Miami Center
06:24PM 27.1342 -82.0514 North 134 154 6,000 -60 Level Miami Center
06:25PM 27.1697 -82.0531 358° North 129 148 5,900 -60 Descending Miami Center
06:26PM 27.2053 -82.0500 North 123 142 5,900  Level Miami Center
06:27PM 27.2386 -82.0469 North 123 142 5,900  Level Miami Center
06:28PM 27.2742 -82.0461 North 123 142 5,900  Level Miami Center
06:29PM 27.3097 -82.0478 358° North 123 142 5,900  Level Miami Center
06:30PM 27.3453 -82.0447 North 123 142 5,900  Level Miami Center
06:31PM 27.3808 -82.0417 North 123 142 5,900  Level Miami Center
06:32PM 27.4164 -82.0408 North 123 142 5,900  Level Miami Center
06:33PM 27.4519 -82.0378 North 123 142 6,000  Climbing Miami Center
06:34PM 27.4894 -82.0372 North 123 142 6,000  Level Miami Center
06:35PM 27.5250 -82.0364 North 123 142 6,000  Level Miami Center
06:36PM 27.5628 -82.0311 North 123 142 6,000  Level Miami Center
06:37PM 27.5983 -82.0281 North 123 142 6,000  Level Miami Center
06:38PM 27.6339 -82.0272 North 123 142 6,000  Level Miami Center
06:39PM 27.6653 -82.0264 North 123 142 6,000  Level Miami Center
06:40PM 27.6986 -82.0278 358° North 123 142 6,000 -60 Level Miami Center
06:41PM 27.7406 -82.0228 North 123 142 5,900  Descending Miami Center
06:42PM 27.7739 -82.0219 North 123 142 6,000  Climbing Miami Center
06:43PM 27.8133 -82.0236 358° North 123 142 5,900 -60 Descending Miami Center
06:44PM 27.8489 -82.0206 North 123 142 5,900  Level Miami Center
06:46PM 27.9000 -82.0167 North 130 150 6,000  Climbing Tampa TRACON
06:46PM 27.9333 -82.0167 360° North 130 150 6,000  Level Tampa TRACON
06:47PM 27.9667 -82.0167 360° North 134 154 6,000  Level Tampa TRACON
06:48PM 28.0000 -82.0167 360° North 134 154 6,000  Level Tampa TRACON
06:49PM 28.0333 -82.0167 360° North 136 157 6,000  Level Tampa TRACON
06:50PM 28.0833 -82.0333 344° North 130 150 6,000  Level Tampa TRACON
06:51PM 28.1167 -82.0333 360° North 134 154 6,000  Level Tampa TRACON
06:52PM 28.1500 -82.0500 336° Northwest 137 158 6,000  Level Tampa TRACON
06:54PM 28.2000 -82.0500 360° North 132 152 6,000  Level Tampa TRACON
06:54PM 28.2167 -82.0500 360° North 129 148 6,000  Level Tampa TRACON
06:56PM 28.2667 -82.0667 344° North 136 157 6,000  Level Tampa TRACON
06:57PM 28.3000 -82.0667 360° North 134 154 6,000  Level Tampa TRACON
06:58PM 28.3333 -82.0833 336° Northwest 132 152 6,000  Level Tampa TRACON
06:59PM 28.3833 -82.0833 360° North 131 151 6,000  Level Tampa TRACON
07:00PM 28.4167 -82.0833 360° North 133 153 6,000  Level Tampa TRACON
07:01PM 28.4500 -82.1000 336° Northwest 136 157 6,000  Level Tampa TRACON
07:02PM 28.4833 -82.1000 360° North 136 157 6,000 -60 Level Tampa TRACON
07:03PM 28.5272 -82.1106 348° North 135 155 5,900 -60 Descending Jacksonville Center
07:04PM 28.5628 -82.1197 347° North 133 153 5,900  Level Jacksonville Center
07:05PM 28.6108 -82.1264 353° North 134 154 6,000  Climbing Jacksonville Center
07:06PM 28.6486 -82.1331 351° North 133 153 6,000  Level Jacksonville Center
07:07PM 28.6778 -82.1400 348° North 136 157 6,000  Level Jacksonville Center
07:08PM 28.7153 -82.1444 354° North 136 157 6,000  Level Jacksonville Center
07:09PM 28.7656 -82.1561 349° North 135 155 6,000 -60 Level Jacksonville Center
07:10PM 28.8031 -82.1628 351° North 137 158 5,900 -60 Descending Jacksonville Center
07:11PM 28.8281 -82.1650 356° North 136 157 5,900  Level Jacksonville Center
07:12PM 28.8700 -82.1719 352° North 137 158 6,000  Climbing Jacksonville Center
07:13PM 28.9097 -82.1833 346° North 135 155 5,900 -60 Descending Jacksonville Center
07:14PM 28.9453 -82.2022 335° Northwest 133 153 5,900 60 Level Jacksonville Center
07:15PM 28.9831 -82.2136 345° North 130 150 6,100  Climbing Jacksonville Center
07:16PM 29.0142 -82.2253 342° North 134 154 6,000 -60 Descending Jacksonville Center
07:17PM 29.0539 -82.2394 343° North 134 154 6,000  Level Jacksonville Center
07:18PM 29.1000 -82.2558 343° North 132 152 6,000  Level Jacksonville Center
07:19PM 29.1250 -82.2675 338° Northwest 134 154 6,000  Level Jacksonville Center
07:20PM 29.1669 -82.2839 341° North 135 155 6,000 -60 Level Jacksonville Center
07:21PM 29.2047 -82.2956 345° North 132 152 5,900  Descending Jacksonville Center
07:22PM 29.2317 -82.3072 339° North 131 151 6,000  Climbing Jacksonville Center
07:23PM 29.2778 -82.3236 343° North 132 152 5,900 -60 Descending Jacksonville Center
07:24PM 29.2986 -82.3306 344° North 129 148 5,900  Level Jacksonville Center
07:25PM 29.3406 -82.3494 339° North 124 143 6,000 -180 Climbing Jacksonville Center
07:26PM 29.3739 -82.3611 343° North 135 155 5,600 -660 Descending Jacksonville Center
07:27PM 29.4075 -82.3753 340° North 138 159 4,800 -900 Descending Jacksonville Center
07:28PM 29.4450 -82.3869 345° North 135 155 3,800 -900 Descending Jacksonville Center
07:29PM 29.4806 -82.4011 341° North 135 155 3,000 -480 Descending Jacksonville Center
07:30PM 29.5119 -82.4128 342° North 114 131 2,900  Descending Jacksonville Center
07:31PM 29.5369 -82.4247 337° Northwest 108 124 3,000 -300 Climbing Jacksonville Center
07:32PM 29.5683 -82.4436 332° Northwest 129 148 2,400 -480 Descending Jacksonville Center
07:33PM 29.6039 -82.4578 341° North 123 142 2,100 -360 Descending Jacksonville Center
07:34PM 29.6206 -82.4267 58° Northeast 118 136 1,700 -240 Descending Jacksonville Center
07:35PM 29.6350 -82.3931 64° Northeast 115 132 1,700  Level Jacksonville Center
07:36PM 29.6494 -82.3619 62° Northeast 92 106 1,700 -360 Level Jacksonville Center
07:37PM 29.6619 -82.3356 61° Northeast 94 108 1,000 -480 Descending Jacksonville Center
07:39PM 29.6764 -82.3092 58° Northeast 89 102 800 -240 Descending Jacksonville Center
07:40PM 29.6824 -82.2722 79° East  Level FlightAware Approximate
07:47PM 29.6833 -82.2667 60° Northeast  Level FlightAware Approximate
07:48PM 29.6901 -82.2718 60° Northeast  Level Estimated